Time;durP1;ratioP1;P1;durP2;ratioP2;P2;SDS_P1;SDS_P2;PMS_P1;PMS_P2;Temp;Humidity;BMP_temperature;BMP_pressure;BME280_temperature;BME280_humidity;BME280_pressure;Samples;Min_cycle;Max_cycle;Signal;HPM_P1;HPM_P2
2021/05/21 00:01:36;;;;;;;10.68;4.72;;;;;;;12.90;78.92;99653.66;1693472;83;20990;-78
2021/05/21 00:04:03;;;;;;;4.87;4.42;;;;;;;12.86;78.92;99655.45;1722258;80;21063;-77
2021/05/21 00:06:29;;;;;;;4.90;4.40;;;;;;;12.83;78.87;99652.59;1723822;82;21072;-77
2021/05/21 00:08:56;;;;;;;8.15;5.00;;;;;;;12.79;78.81;99653.07;1748701;80;21537;-77
2021/05/21 00:11:23;;;;;;;5.97;4.65;;;;;;;12.73;78.85;99651.02;1743000;80;22313;-77
2021/05/21 00:13:49;;;;;;;5.60;4.70;;;;;;;12.67;78.87;99645.03;1719578;81;21580;-77
2021/05/21 00:16:16;;;;;;;6.83;4.67;;;;;;;12.61;78.82;99648.62;1722019;83;20974;-77
2021/05/21 00:18:42;;;;;;;7.72;4.80;;;;;;;12.57;78.78;99652.56;1723303;81;21065;-78
2021/05/21 00:21:10;;;;;;;6.97;4.45;;;;;;;12.49;78.79;99653.81;1750043;80;21136;-77
2021/05/21 00:23:37;;;;;;;6.50;4.65;;;;;;;12.44;78.77;99655.23;1746193;80;21731;-78
2021/05/21 00:26:03;;;;;;;6.05;4.28;;;;;;;12.40;78.73;99662.66;1709964;83;20978;-77
2021/05/21 00:28:30;;;;;;;8.40;4.28;;;;;;;12.32;78.74;99656.79;1745992;80;21576;-77
2021/05/21 00:30:56;;;;;;;7.30;4.70;;;;;;;12.26;78.77;99665.84;1746060;80;21082;-78
2021/05/21 00:33:22;;;;;;;6.60;4.45;;;;;;;12.22;78.82;99661.81;1749001;80;21009;-77
2021/05/21 00:35:49;;;;;;;6.67;4.83;;;;;;;12.15;78.85;99664.70;1720032;82;22279;-78
2021/05/21 00:38:16;;;;;;;9.70;5.30;;;;;;;12.05;78.98;99666.09;1748001;82;20978;-77
2021/05/21 00:40:42;;;;;;;12.25;7.08;;;;;;;11.98;79.01;99661.91;1732576;82;21042;-78
2021/05/21 00:43:09;;;;;;;8.08;6.47;;;;;;;11.93;79.11;99662.82;1733276;82;21133;-77
2021/05/21 00:45:37;;;;;;;9.18;6.30;;;;;;;11.92;79.21;99669.09;1732741;82;21572;-78
2021/05/21 00:48:05;;;;;;;9.88;6.37;;;;;;;11.88;79.29;99674.84;1748184;82;22283;-78
2021/05/21 00:50:31;;;;;;;8.68;6.25;;;;;;;11.84;79.38;99671.64;1721327;81;21102;-78
2021/05/21 00:52:58;;;;;;;8.23;6.03;;;;;;;11.82;79.52;99664.84;1743508;80;20994;-77
2021/05/21 00:55:25;;;;;;;8.70;7.22;;;;;;;11.77;79.50;99661.26;1745201;80;21148;-78
2021/05/21 00:57:51;;;;;;;8.70;7.05;;;;;;;11.73;79.48;99656.77;1746745;81;21536;-78
2021/05/21 01:00:18;;;;;;;12.28;6.85;;;;;;;11.70;79.45;99662.36;1744762;80;21703;-77
2021/05/21 01:02:44;;;;;;;10.15;7.12;;;;;;;11.65;79.49;99660.63;1745901;81;20955;-78
2021/05/21 01:05:12;;;;;;;10.53;7.58;;;;;;;11.61;79.53;99657.11;1739402;80;21566;-77
2021/05/21 01:07:40;;;;;;;9.50;7.42;;;;;;;11.60;79.62;99661.57;1743196;80;21052;-77
2021/05/21 01:10:08;;;;;;;10.98;7.80;;;;;;;11.58;79.64;99658.70;1720483;81;21002;-77
2021/05/21 01:12:34;;;;;;;8.08;7.28;;;;;;;11.58;79.73;99660.03;1750133;80;21851;-77
2021/05/21 01:15:03;;;;;;;13.35;7.33;;;;;;;11.56;79.66;99658.02;1749137;80;21560;-77
2021/05/21 01:17:31;;;;;;;11.45;7.62;;;;;;;11.54;79.64;99657.34;1739589;80;21079;-77
2021/05/21 01:19:58;;;;;;;7.53;6.45;;;;;;;11.51;79.65;99657.64;1749518;81;21001;-78
2021/05/21 01:22:25;;;;;;;9.85;7.33;;;;;;;11.50;79.72;99658.63;1712056;82;20970;-77
2021/05/21 01:24:52;;;;;;;9.70;7.00;;;;;;;11.50;79.82;99658.63;1750070;82;22195;-77
2021/05/21 01:27:18;;;;;;;7.87;6.87;;;;;;;11.48;79.84;99658.73;1750025;81;21017;-77
2021/05/21 01:29:44;;;;;;;9.60;6.35;;;;;;;11.45;79.85;99650.62;1732679;80;21630;-77
2021/05/21 01:32:11;;;;;;;7.67;6.33;;;;;;;11.43;79.82;99657.87;1748486;80;21068;-77
2021/05/21 01:34:38;;;;;;;10.63;6.05;;;;;;;11.40;79.95;99660.81;1746341;80;21001;-77
2021/05/21 01:37:19;;;;;;;9.30;6.25;;;;;;;11.39;80.06;99661.80;1719632;82;21770;-77
2021/05/21 01:39:47;;;;;;;7.45;5.78;;;;;;;11.39;80.00;99663.11;1722753;82;21021;-77
2021/05/21 01:42:14;;;;;;;8.63;5.75;;;;;;;11.40;80.02;99662.62;1747937;80;21080;-77
2021/05/21 01:44:40;;;;;;;7.83;5.62;;;;;;;11.38;79.88;99663.23;1748382;80;21099;-77
2021/05/21 01:47:09;;;;;;;5.78;4.97;;;;;;;11.33;79.75;99663.68;1735692;82;20997;-77
2021/05/21 01:49:36;;;;;;;7.45;6.12;;;;;;;11.28;79.71;99661.94;1744496;82;21786;-77
2021/05/21 01:52:03;;;;;;;7.20;4.97;;;;;;;11.24;79.61;99665.03;1749048;80;21582;-77
2021/05/21 01:54:31;;;;;;;6.70;4.78;;;;;;;11.21;79.56;99666.16;1748259;80;21654;-77
2021/05/21 01:56:58;;;;;;;6.67;4.67;;;;;;;11.21;79.54;99671.44;1743817;82;21142;-77
2021/05/21 01:59:25;;;;;;;7.25;4.10;;;;;;;11.22;79.53;99669.14;1736668;81;21052;-77
2021/05/21 02:01:53;;;;;;;8.65;4.95;;;;;;;11.23;79.39;99672.13;1749450;81;21020;-77
2021/05/21 02:04:31;;;;;;;8.43;4.78;;;;;;;11.20;79.27;99669.78;1722700;82;21154;-77
2021/05/21 02:06:58;;;;;;;9.58;4.55;;;;;;;11.18;79.13;99675.18;1750900;81;21096;-77
2021/05/21 02:09:26;;;;;;;5.62;4.78;;;;;;;11.10;78.98;99687.47;1731273;81;21600;-77
2021/05/21 02:11:52;;;;;;;7.87;4.17;;;;;;;11.04;78.93;99686.21;1737769;80;21088;-77
2021/05/21 02:14:19;;;;;;;5.17;3.22;;;;;;;11.03;78.89;99690.33;1751176;80;21763;-77
2021/05/21 02:16:47;;;;;;;5.87;3.20;;;;;;;11.03;78.71;99689.83;1734034;81;21468;-77
2021/05/21 02:19:13;;;;;;;6.30;3.00;;;;;;;11.05;78.48;99692.33;1745080;81;21024;-77
2021/05/21 02:21:42;;;;;;;5.45;3.37;;;;;;;11.06;78.29;99693.50;1752903;81;21108;-77
2021/05/21 02:24:10;;;;;;;11.35;3.72;;;;;;;11.07;78.15;99692.52;1736482;82;21055;-77
2021/05/21 02:26:36;;;;;;;4.33;2.60;;;;;;;11.02;78.11;99690.81;1753106;81;21748;-77
2021/05/21 02:29:03;;;;;;;5.30;2.90;;;;;;;10.99;77.98;99693.72;1750247;81;21080;-77
2021/05/21 02:31:30;;;;;;;4.42;2.40;;;;;;;11.00;77.88;99694.55;1714360;83;21065;-77
2021/05/21 02:33:56;;;;;;;3.33;2.65;;;;;;;11.01;77.77;99700.20;1722703;81;21022;-76
2021/05/21 02:36:23;;;;;;;3.62;2.20;;;;;;;11.01;77.72;99699.72;1730691;81;21038;-77
2021/05/21 02:38:50;;;;;;;3.35;2.10;;;;;;;10.99;77.71;99702.96;1730862;81;22502;-76
2021/05/21 02:41:16;;;;;;;3.20;2.12;;;;;;;11.03;77.54;99696.93;1731817;82;21500;-77
2021/05/21 02:43:43;;;;;;;2.72;2.10;;;;;;;11.06;77.48;99705.40;1730561;81;21084;-77
2021/05/21 02:46:09;;;;;;;5.45;2.50;;;;;;;11.08;77.38;99701.28;1725242;81;21136;-77
2021/05/21 02:48:36;;;;;;;4.70;2.33;;;;;;;11.12;77.38;99708.81;1730448;83;20998;-77
2021/05/21 02:51:04;;;;;;;6.22;2.40;;;;;;;11.11;77.44;99704.98;1717171;81;21496;-77
2021/05/21 02:53:32;;;;;;;4.95;2.30;;;;;;;11.09;77.53;99711.71;1726566;81;21070;-77
2021/05/21 02:55:58;;;;;;;5.20;2.15;;;;;;;11.12;77.67;99719.87;1730611;81;21065;-77
2021/05/21 02:58:25;;;;;;;4.40;2.35;;;;;;;11.14;77.78;99720.55;1738351;81;20990;-76
2021/05/21 03:00:51;;;;;;;2.80;1.98;;;;;;;11.19;77.92;99724.91;1717931;81;21638;-78
2021/05/21 03:03:17;;;;;;;2.02;1.80;;;;;;;11.21;77.89;99722.98;1732052;81;21752;-78
2021/05/21 03:05:44;;;;;;;4.62;1.90;;;;;;;11.29;77.94;99728.41;1721516;81;21018;-78
2021/05/21 03:08:12;;;;;;;2.40;1.65;;;;;;;11.37;77.92;99739.08;1710047;82;21024;-78
2021/05/21 03:10:38;;;;;;;2.65;1.70;;;;;;;11.45;77.81;99738.38;1714526;83;21006;-78
2021/05/21 03:13:05;;;;;;;3.05;1.70;;;;;;;11.55;77.72;99744.47;1717443;82;20979;-78
2021/05/21 03:15:32;;;;;;;4.58;1.90;;;;;;;11.66;77.55;99745.62;1710938;82;21765;-78
2021/05/21 03:17:59;;;;;;;2.72;1.85;;;;;;;11.78;77.41;99750.27;1714683;82;21534;-78
2021/05/21 03:20:26;;;;;;;4.00;1.98;;;;;;;11.85;77.07;99747.89;1724954;80;20974;-78
2021/05/21 03:22:53;;;;;;;5.55;2.10;;;;;;;11.93;77.03;99750.16;1742257;80;21052;-78
2021/05/21 03:25:21;;;;;;;2.92;1.92;;;;;;;12.01;76.93;99756.87;1741904;80;21032;-79
2021/05/21 03:27:47;;;;;;;3.02;2.08;;;;;;;12.09;77.10;99757.97;1744499;82;21770;-78
2021/05/21 03:30:15;;;;;;;4.75;1.90;;;;;;;12.14;77.08;99765.80;1738202;80;21451;-78
2021/05/21 03:32:42;;;;;;;3.83;2.12;;;;;;;12.21;76.87;99768.70;1736066;80;21046;-78
2021/05/21 03:35:10;;;;;;;4.80;2.22;;;;;;;12.27;76.75;99772.93;1721169;80;21068;-78
2021/05/21 03:37:37;;;;;;;4.78;2.40;;;;;;;12.35;76.55;99777.46;1743700;80;20997;-78
2021/05/21 03:40:05;;;;;;;6.05;2.47;;;;;;;12.41;76.35;99782.67;1744040;81;22209;-78
2021/05/21 03:42:32;;;;;;;3.47;2.50;;;;;;;12.47;76.11;99774.98;1739134;80;21081;-78
2021/05/21 03:44:58;;;;;;;3.87;2.42;;;;;;;12.52;75.68;99779.81;1742064;82;20991;-78
2021/05/21 03:47:25;;;;;;;4.12;2.20;;;;;;;12.57;75.55;99783.70;1742216;80;20981;-78
2021/05/21 03:49:53;;;;;;;5.15;2.08;;;;;;;12.63;75.35;99774.30;1742755;80;21017;-78
2021/05/21 03:52:19;;;;;;;2.37;1.70;;;;;;;12.68;75.21;99777.35;1743997;80;21716;-78
2021/05/21 03:54:46;;;;;;;4.15;1.80;;;;;;;12.71;74.59;99781.02;1743967;80;21009;-78
2021/05/21 03:57:12;;;;;;;3.55;1.50;;;;;;;12.73;74.28;99779.54;1734493;80;21062;-78
2021/05/21 03:59:39;;;;;;;4.70;1.50;;;;;;;12.78;74.09;99782.09;1734086;80;20986;-78
2021/05/21 04:02:06;;;;;;;2.62;1.60;;;;;;;12.83;73.59;99790.91;1695631;82;21005;-80
2021/05/21 04:04:32;;;;;;;5.75;1.57;;;;;;;12.89;73.23;99786.34;1729539;81;21684;-78
2021/05/21 04:07:00;;;;;;;4.03;1.60;;;;;;;12.97;72.97;99783.77;1730423;82;21562;-78
2021/05/21 04:09:30;;;;;;;2.30;1.52;;;;;;;13.03;72.59;99783.17;1740385;82;21015;-77
2021/05/21 04:11:55;;;;;;;3.75;1.40;;;;;;;13.09;72.36;99789.67;1711021;83;21569;-76
2021/05/21 04:14:22;;;;;;;1.62;1.40;;;;;;;13.15;72.11;99783.77;1744494;80;21596;-76
2021/05/21 04:16:48;;;;;;;3.17;1.55;;;;;;;13.21;71.62;99781.01;1745125;80;21746;-75
2021/05/21 04:19:15;;;;;;;2.87;1.22;;;;;;;13.25;71.22;99779.24;1740446;80;20962;-76
2021/05/21 04:21:41;;;;;;;3.70;1.40;;;;;;;13.30;70.75;99782.75;1741597;80;21081;-78
2021/05/21 04:24:11;;;;;;;2.60;1.15;;;;;;;13.36;70.12;99779.48;1697327;82;21589;-78
2021/05/21 04:26:38;;;;;;;3.00;1.20;;;;;;;13.41;69.49;99786.02;1668243;84;21122;-78
2021/05/21 04:29:04;;;;;;;2.92;1.10;;;;;;;13.42;68.25;99786.84;1726650;81;22440;-79
2021/05/21 04:31:32;;;;;;;1.87;1.10;;;;;;;13.43;67.67;99787.17;1724343;81;21092;-75
2021/05/21 04:33:58;;;;;;;1.98;1.20;;;;;;;13.40;66.93;99792.77;1725949;81;21098;-75
2021/05/21 04:36:25;;;;;;;2.67;1.10;;;;;;;13.41;66.99;99790.45;1744229;81;21668;-76
2021/05/21 04:38:52;;;;;;;2.42;1.00;;;;;;;13.46;67.23;99791.67;1721037;82;21029;-74
2021/05/21 04:41:18;;;;;;;6.25;1.20;;;;;;;13.54;67.13;99791.40;1716014;83;21797;-75
2021/05/21 04:43:46;;;;;;;3.22;1.10;;;;;;;13.58;65.64;99790.92;1719258;82;21117;-74
2021/05/21 04:46:13;;;;;;;2.52;1.10;;;;;;;13.57;64.83;99791.91;1726161;83;21488;-74
2021/05/21 04:48:41;;;;;;;1.80;1.30;;;;;;;13.58;64.69;99794.90;1726209;82;21062;-74
2021/05/21 04:51:08;;;;;;;3.90;1.05;;;;;;;13.58;64.74;99790.92;1721240;82;21517;-74
2021/05/21 04:53:34;;;;;;;1.80;1.10;;;;;;;13.58;64.44;99796.22;1707902;84;22289;-73
2021/05/21 04:56:01;;;;;;;1.50;0.85;;;;;;;13.62;64.28;99798.09;1719184;81;21069;-74
2021/05/21 04:58:27;;;;;;;3.47;1.20;;;;;;;13.65;64.20;99804.41;1725997;83;21108;-74
2021/05/21 05:00:54;;;;;;;1.87;1.12;;;;;;;13.61;63.83;99803.90;1726071;83;21054;-74
2021/05/21 05:03:21;;;;;;;3.33;1.15;;;;;;;13.63;64.02;99812.53;1726197;83;21565;-74
2021/05/21 05:05:48;;;;;;;1.95;1.15;;;;;;;13.65;64.05;99815.86;1742642;81;22513;-74
2021/05/21 05:08:16;;;;;;;2.42;1.00;;;;;;;13.74;64.25;99812.77;1735012;82;21017;-74
2021/05/21 05:10:48;;;;;;;3.17;1.00;;;;;;;13.86;64.30;99814.16;1735144;82;21539;-75
2021/05/21 05:13:17;;;;;;;1.23;0.97;;;;;;;14.00;64.03;99814.10;1735372;81;21038;-74
2021/05/21 05:15:44;;;;;;;1.90;0.88;;;;;;;14.12;63.75;99814.16;1735194;82;21029;-74
2021/05/21 05:18:11;;;;;;;2.55;1.10;;;;;;;14.22;63.15;99810.05;1734917;82;21750;-74
2021/05/21 05:20:40;;;;;;;3.58;0.90;;;;;;;14.30;63.06;99813.59;1735053;82;21081;-74
2021/05/21 05:23:10;;;;;;;2.12;0.90;;;;;;;14.36;62.64;99811.27;1735264;81;20982;-74
2021/05/21 05:25:41;;;;;;;1.35;0.80;;;;;;;14.40;62.59;99812.13;1735002;82;21599;-74
2021/05/21 05:28:11;;;;;;;4.90;1.00;;;;;;;14.43;61.73;99810.47;1682298;84;21014;-74
2021/05/21 05:30:39;;;;;;;1.95;1.10;;;;;;;14.47;61.77;99815.82;1719257;82;21809;-74
2021/05/21 05:33:05;;;;;;;1.30;1.10;;;;;;;14.55;61.62;99819.02;1735272;82;21449;-74
2021/05/21 05:35:34;;;;;;;1.87;1.07;;;;;;;14.64;61.38;99815.89;1735157;81;21025;-74
2021/05/21 05:38:01;;;;;;;1.02;0.78;;;;;;;14.73;61.26;99810.43;1731506;81;21151;-73
2021/05/21 05:40:30;;;;;;;1.30;0.80;;;;;;;14.82;60.66;99811.29;1723199;82;21486;-73
2021/05/21 05:42:56;;;;;;;4.10;0.80;;;;;;;14.88;59.08;99806.66;1725725;82;22334;-74
2021/05/21 05:45:25;;;;;;;1.90;0.90;;;;;;;14.95;58.37;99812.97;1735203;82;21073;-74
2021/05/21 05:47:51;;;;;;;2.17;0.95;;;;;;;14.99;58.46;99812.16;1734905;82;21018;-74
2021/05/21 05:50:18;;;;;;;3.30;0.80;;;;;;;15.09;58.99;99814.17;1735258;82;20994;-74
2021/05/21 05:52:45;;;;;;;1.47;0.82;;;;;;;15.20;58.57;99817.00;1735383;82;21010;-74
2021/05/21 05:55:12;;;;;;;0.80;0.70;;;;;;;15.32;58.04;99817.00;1735242;82;21798;-73
2021/05/21 05:57:39;;;;;;;2.02;1.10;;;;;;;15.42;57.33;99811.02;1735349;81;21477;-73
2021/05/21 06:00:07;;;;;;;1.57;0.80;;;;;;;15.49;56.34;99816.52;1735245;82;20966;-73
2021/05/21 06:02:34;;;;;;;2.05;0.80;;;;;;;15.51;56.56;99814.01;1735255;82;20997;-73
2021/05/21 06:05:02;;;;;;;3.52;0.80;;;;;;;15.52;56.38;99809.52;1735200;82;21042;-73
2021/05/21 06:07:30;;;;;;;2.15;0.60;;;;;;;15.55;55.33;99815.36;1740725;82;21165;-73
2021/05/21 06:09:56;;;;;;;2.05;0.82;;;;;;;15.57;54.00;99820.51;1744456;81;21013;-73
2021/05/21 06:12:23;;;;;;;1.32;0.80;;;;;;;15.52;53.57;99820.98;1744650;82;21559;-73
2021/05/21 06:14:49;;;;;;;2.40;1.00;;;;;;;15.52;54.00;99821.49;1744426;82;21001;-73
2021/05/21 06:17:18;;;;;;;1.67;0.93;;;;;;;15.54;52.67;99828.34;1744361;81;21002;-73
2021/05/21 06:19:47;;;;;;;2.12;0.80;;;;;;;15.48;52.86;99820.17;1744521;81;21872;-74
2021/05/21 06:22:13;;;;;;;2.40;0.90;;;;;;;15.48;53.89;99827.66;1730535;83;21038;-73
2021/05/21 06:24:42;;;;;;;4.83;1.05;;;;;;;15.62;54.18;99823.52;1744499;82;20978;-74
2021/05/21 06:27:26;;;;;;;3.47;1.10;;;;;;;15.79;53.85;99831.83;1714599;82;21009;-73
2021/05/21 06:29:53;;;;;;;2.22;0.90;;;;;;;15.94;52.71;99828.81;1714256;82;21041;-73
2021/05/21 06:32:19;;;;;;;3.98;1.00;;;;;;;16.02;53.71;99832.80;1744544;82;21759;-73
2021/05/21 06:34:48;;;;;;;1.17;0.90;;;;;;;16.11;52.76;99827.42;1739983;82;21001;-73
2021/05/21 06:37:15;;;;;;;2.55;0.93;;;;;;;16.09;53.25;99836.92;1744060;81;21078;-74
2021/05/21 06:39:42;;;;;;;2.05;1.00;;;;;;;16.07;53.42;99841.59;1744422;82;21591;-72
2021/05/21 06:42:09;;;;;;;2.58;1.52;;;;;;;16.11;52.76;99837.58;1718034;83;21500;-73
2021/05/21 06:44:35;;;;;;;2.22;1.57;;;;;;;16.20;52.94;99837.89;1718091;83;21465;-73
2021/05/21 06:47:01;;;;;;;2.22;0.88;;;;;;;16.23;53.22;99827.41;1744589;82;20994;-73
2021/05/21 06:49:28;;;;;;;2.08;1.15;;;;;;;16.24;53.04;99837.06;1744246;81;20947;-73
2021/05/21 06:51:54;;;;;;;1.65;1.10;;;;;;;16.18;52.72;99830.58;1744224;82;21033;-74
2021/05/21 06:54:20;;;;;;;2.25;1.15;;;;;;;16.03;53.76;99834.45;1744315;82;21037;-73
2021/05/21 06:56:48;;;;;;;2.72;1.00;;;;;;;16.01;54.49;99843.09;1744232;82;22593;-73
2021/05/21 06:59:14;;;;;;;2.77;1.30;;;;;;;15.99;53.62;99839.77;1744308;81;21076;-74
2021/05/21 07:01:41;;;;;;;2.25;1.00;;;;;;;15.94;54.37;99843.46;1742960;82;20986;-73
2021/05/21 07:04:07;;;;;;;1.98;0.90;;;;;;;15.98;54.97;99839.45;1744624;82;21037;-73
2021/05/21 07:06:34;;;;;;;1.72;1.10;;;;;;;16.06;55.60;99837.27;1744710;81;20998;-73
2021/05/21 07:09:00;;;;;;;1.60;1.20;;;;;;;16.16;54.96;99837.08;1748707;81;21750;-73
2021/05/21 07:11:26;;;;;;;4.67;1.77;;;;;;;16.13;53.97;99842.27;1752781;81;20966;-73
2021/05/21 07:13:54;;;;;;;2.40;1.30;;;;;;;15.99;54.55;99841.61;1724841;81;21601;-74
2021/05/21 07:16:21;;;;;;;3.12;1.85;;;;;;;15.99;55.24;99837.11;1752912;81;21080;-73
2021/05/21 07:18:49;;;;;;;1.55;1.15;;;;;;;16.11;55.80;99841.58;1752850;81;21024;-74
2021/05/21 07:21:15;;;;;;;4.35;1.00;;;;;;;16.25;55.20;99846.72;1752829;81;22292;-72
2021/05/21 07:23:41;;;;;;;2.50;1.12;;;;;;;16.26;54.34;99838.55;1752892;81;21053;-73
2021/05/21 07:26:08;;;;;;;3.25;1.10;;;;;;;16.20;54.24;99837.05;1752939;81;20982;-74
2021/05/21 07:28:35;;;;;;;2.62;1.10;;;;;;;16.19;53.69;99838.06;1752521;80;21076;-74
2021/05/21 07:31:02;;;;;;;3.77;1.05;;;;;;;16.17;53.63;99847.56;1753053;81;21036;-74
2021/05/21 07:33:30;;;;;;;1.92;1.15;;;;;;;16.19;53.89;99842.89;1751987;81;21683;-74
2021/05/21 07:35:56;;;;;;;2.65;1.15;;;;;;;16.23;53.15;99854.06;1750726;81;21016;-75
2021/05/21 07:38:24;;;;;;;2.83;1.07;;;;;;;16.24;52.60;99841.06;1750916;80;21243;-74
2021/05/21 07:40:50;;;;;;;3.37;0.90;;;;;;;16.21;52.94;99846.71;1752126;81;21100;-75
2021/05/21 07:43:16;;;;;;;3.62;1.10;;;;;;;16.16;52.46;99843.74;1741812;81;21006;-78
2021/05/21 07:45:43;;;;;;;1.02;0.75;;;;;;;16.20;52.58;99849.05;1749808;81;21636;-78
2021/05/21 07:48:10;;;;;;;1.05;0.80;;;;;;;16.32;52.75;99846.37;1752697;81;21097;-72
2021/05/21 07:50:39;;;;;;;1.07;0.60;;;;;;;16.48;52.77;99837.47;1750644;81;21013;-72
2021/05/21 07:53:06;;;;;;;1.75;1.10;;;;;;;16.57;50.42;99851.09;1750887;81;21032;-72
2021/05/21 07:55:33;;;;;;;0.93;0.50;;;;;;;16.55;48.30;99850.44;1752899;81;21167;-73
2021/05/21 07:57:59;;;;;;;1.05;0.60;;;;;;;16.50;47.38;99859.44;1749506;81;21741;-71
2021/05/21 08:00:26;;;;;;;2.52;0.50;;;;;;;16.53;47.26;99855.13;1750290;81;20979;-73
2021/05/21 08:02:52;;;;;;;0.93;0.50;;;;;;;16.63;47.96;99861.58;1752972;81;21021;-73
2021/05/21 08:05:18;;;;;;;1.47;0.40;;;;;;;16.75;48.01;99853.55;1746750;82;21481;-72
2021/05/21 08:07:45;;;;;;;0.40;0.40;;;;;;;16.76;46.33;99857.37;1749067;81;20993;-74
2021/05/21 08:10:14;;;;;;;2.05;0.47;;;;;;;16.67;46.56;99858.38;1744242;82;21060;-72
2021/05/21 08:12:40;;;;;;;1.50;0.90;;;;;;;16.60;47.00;99847.59;1713262;83;21517;-73
2021/05/21 08:15:07;;;;;;;0.57;0.50;;;;;;;16.62;48.04;99856.75;1713324;83;20990;-74
2021/05/21 08:17:35;;;;;;;0.50;0.47;;;;;;;16.68;48.25;99857.88;1744221;82;21058;-73
2021/05/21 08:20:03;;;;;;;0.80;0.60;;;;;;;16.71;48.48;99852.25;1744033;81;21034;-74
2021/05/21 08:22:30;;;;;;;0.50;0.42;;;;;;;16.83;49.49;99863.67;1743927;82;21727;-75
2021/05/21 08:24:57;;;;;;;0.75;0.50;;;;;;;16.95;49.39;99856.11;1758605;80;20982;-74
2021/05/21 08:27:24;;;;;;;0.50;0.40;;;;;;;17.09;48.47;99858.55;1725385;83;21036;-73
2021/05/21 08:29:50;;;;;;;0.93;0.45;;;;;;;17.23;47.16;99859.61;1725151;82;21089;-73
2021/05/21 08:32:16;;;;;;;1.45;1.00;;;;;;;17.31;46.56;99862.23;1725949;82;20970;-74
2021/05/21 08:34:43;;;;;;;1.07;0.82;;;;;;;17.38;46.83;99861.85;1726097;83;21788;-73
2021/05/21 08:37:09;;;;;;;0.40;0.40;;;;;;;17.42;46.13;99857.30;1734381;82;21501;-74
2021/05/21 08:39:38;;;;;;;0.40;0.30;;;;;;;17.38;45.58;99857.84;1732899;81;21037;-74
2021/05/21 08:42:04;;;;;;;0.42;0.33;;;;;;;17.33;47.03;99861.03;1730099;81;21698;-73
2021/05/21 08:44:31;;;;;;;2.08;0.37;;;;;;;17.32;46.84;99865.22;1735837;81;21022;-74
2021/05/21 08:47:01;;;;;;;0.50;0.50;;;;;;;17.44;46.40;99866.45;1756103;81;21638;-72
2021/05/21 08:49:28;;;;;;;0.75;0.50;;;;;;;17.57;46.31;99869.88;1720526;81;20986;-74
2021/05/21 08:51:57;;;;;;;0.53;0.33;;;;;;;17.72;45.25;99868.10;1725747;83;21164;-72
2021/05/21 08:54:23;;;;;;;0.62;0.50;;;;;;;17.88;45.65;99869.81;1727479;81;21065;-73
2021/05/21 08:56:49;;;;;;;1.90;0.50;;;;;;;18.02;44.95;99864.47;1758274;80;20994;-73
2021/05/21 08:59:16;;;;;;;0.57;0.40;;;;;;;18.18;43.95;99870.68;1720511;82;22128;-73
2021/05/21 09:01:55;;;;;;;0.98;0.40;;;;;;;18.32;44.57;99879.20;1719963;82;21118;-73
2021/05/21 09:04:22;;;;;;;2.45;0.60;;;;;;;18.43;43.66;99880.11;1765499;80;21054;-73
2021/05/21 09:06:48;;;;;;;0.72;0.33;;;;;;;18.51;45.07;99880.49;1748015;82;20990;-73
2021/05/21 09:09:15;;;;;;;0.57;0.40;;;;;;;18.62;43.31;99884.03;1734906;82;20975;-74
2021/05/21 09:11:44;;;;;;;0.72;0.40;;;;;;;18.69;44.45;99872.95;1704932;82;21778;-73
2021/05/21 09:14:16;;;;;;;0.53;0.40;;;;;;;18.89;44.81;99873.20;1690416;84;21022;-73
2021/05/21 09:16:44;;;;;;;3.70;1.67;;;;;;;19.01;41.82;99869.52;1690375;84;21049;-73
2021/05/21 09:19:18;;;;;;;2.58;0.62;;;;;;;19.02;43.05;99869.35;1691591;84;21128;-72
2021/05/21 09:22:00;;;;;;;0.72;0.60;;;;;;;19.18;43.84;99862.92;1698826;84;20993;-73
2021/05/21 09:24:43;;;;;;;0.80;0.40;;;;;;;19.42;43.56;99862.56;1690599;84;21536;-72
2021/05/21 09:27:10;;;;;;;5.72;0.60;;;;;;;19.61;42.89;99862.97;1713936;82;20963;-79
2021/05/21 09:29:55;;;;;;;0.53;0.30;;;;;;;19.77;42.97;99868.03;1734043;81;20973;-81
2021/05/21 09:32:34;;;;;;;;;;;;;;;19.71;40.78;99866.15;1725024;83;21026;-84
2021/05/21 09:35:15;;;;;;;1.95;0.78;;;;;;;19.59;41.41;99861.83;1699040;82;20256;-81
2021/05/21 09:37:48;;;;;;;0.72;0.40;;;;;;;19.59;43.37;99865.84;1719814;82;21850;-79
2021/05/21 09:40:26;;;;;;;2.75;0.70;;;;;;;19.66;42.73;99867.22;1741648;81;21098;-81
2021/05/21 09:43:05;;;;;;;4.53;0.60;;;;;;;19.78;42.53;99871.03;1741539;82;21039;-85
2021/05/21 09:45:36;;;;;;;5.42;0.55;;;;;;;19.88;41.25;99869.36;1725945;82;21130;-86
2021/05/21 09:48:11;;;;;;;3.42;0.60;;;;;;;19.78;40.19;99869.69;1708380;82;21126;-83
2021/05/21 09:50:46;;;;;;;1.05;0.40;;;;;;;19.69;41.00;99872.22;1712143;83;22362;-81
2021/05/21 09:53:20;;;;;;;1.22;0.40;;;;;;;19.57;41.05;99865.70;1720475;81;21576;-82
2021/05/21 09:55:56;;;;;;;0.85;0.45;;;;;;;19.52;41.22;99860.91;1718292;81;21476;-82
2021/05/21 09:58:32;;;;;;;0.62;0.30;;;;;;;19.51;42.55;99867.28;1720426;81;21064;-85
2021/05/21 10:01:13;;;;;;;0.82;0.50;;;;;;;19.47;40.95;99852.59;1723688;81;21582;-91
2021/05/21 10:03:56;;;;;;;0.40;0.40;;;;;;;19.32;41.27;99857.20;1721040;81;21747;-85
2021/05/21 10:06:27;;;;;;;1.82;0.40;;;;;;;19.21;41.12;99856.37;1712723;82;27906;-86
2021/05/21 10:08:56;;;;;;;1.20;0.40;;;;;;;19.06;41.54;99855.08;1722305;81;21672;-84
2021/05/21 10:11:22;;;;;;;1.25;0.53;;;;;;;18.90;42.52;99854.78;1713274;83;21119;-84
2021/05/21 10:13:49;;;;;;;0.70;0.45;;;;;;;18.87;42.96;99863.19;1706966;83;21509;-80
2021/05/21 10:16:17;;;;;;;2.77;0.70;;;;;;;18.97;43.67;99861.55;1744512;82;21771;-82
2021/05/21 10:18:48;;;;;;;0.55;0.40;;;;;;;19.21;44.98;99863.90;1744091;82;21045;-82
2021/05/21 10:21:15;;;;;;;1.75;0.50;;;;;;;19.52;43.63;99868.11;1717652;82;21034;-84
2021/05/21 10:23:47;;;;;;;2.37;0.50;;;;;;;19.81;41.77;99873.34;1762651;80;21064;-85
2021/05/21 10:26:20;;;;;;;0.40;0.40;;;;;;;19.94;41.37;99880.14;1716821;83;21043;-82
2021/05/21 10:28:49;;;;;;;1.12;0.40;;;;;;;20.01;40.36;99881.02;1747101;81;22149;-83
2021/05/21 10:31:15;;;;;;;1.42;0.50;;;;;;;20.00;40.23;99882.56;1715914;82;21029;-84
2021/05/21 10:33:43;;;;;;;1.25;0.50;;;;;;;20.05;41.82;99883.30;1659278;82;21071;-84
2021/05/21 10:36:29;;;;;;;0.53;0.40;;;;;;;20.30;41.64;99884.52;1736218;80;21478;-85
2021/05/21 10:39:21;;;;;;;0.70;0.50;;;;;;;20.59;42.45;99890.19;1743702;80;21025;-83
2021/05/21 10:42:19;;;;;;;3.05;0.60;;;;;;;20.99;41.60;99887.68;1739721;81;22499;-84
2021/05/21 10:44:50;;;;;;;1.52;0.55;;;;;;;21.39;40.23;99888.64;1717927;81;21025;-85
2021/05/21 10:47:22;;;;;;;0.68;0.30;;;;;;;21.50;38.04;99881.84;1714482;82;21105;-84
2021/05/21 10:49:54;;;;;;;0.95;0.60;;;;;;;21.41;36.57;99891.95;1743588;81;21428;-82
2021/05/21 10:52:22;;;;;;;1.37;0.40;;;;;;;21.25;36.38;99889.63;1743506;81;21056;-82
2021/05/21 10:54:50;;;;;;;1.85;0.50;;;;;;;21.13;36.21;99889.36;1743709;82;22149;-82
2021/05/21 10:57:19;;;;;;;0.98;0.50;;;;;;;20.94;37.47;99890.12;1743121;82;21589;-84
2021/05/21 11:00:00;;;;;;;0.90;0.40;;;;;;;20.84;35.97;99905.27;1743457;81;21583;-84
2021/05/21 11:02:52;;;;;;;1.40;0.50;;;;;;;20.54;36.55;99902.84;1743759;82;21025;-84
2021/05/21 11:05:35;;;;;;;2.15;0.45;;;;;;;20.48;38.26;99905.00;1744581;81;21007;-85
2021/05/21 11:08:02;;;;;;;1.10;0.50;;;;;;;20.41;37.07;99906.77;1744140;82;21760;-81
2021/05/21 11:10:37;;;;;;;0.50;0.40;;;;;;;20.37;38.07;99904.17;1739139;82;21462;-84
2021/05/21 11:13:11;;;;;;;1.55;0.30;;;;;;;20.34;37.53;99913.94;1743491;82;21015;-83
2021/05/21 11:15:40;;;;;;;;;;;;;;;20.30;36.93;99907.32;1747189;82;21078;-84
2021/05/21 11:18:19;;;;;;;1.60;0.47;;;;;;;20.27;37.70;99913.09;1696414;83;20215;-86
2021/05/21 11:21:12;;;;;;;2.62;0.40;;;;;;;20.19;37.02;99914.06;1741650;80;21840;-84
2021/05/21 11:23:50;;;;;;;0.80;0.40;;;;;;;20.13;37.36;99925.55;1727406;81;21023;-84
2021/05/21 11:26:21;;;;;;;1.12;0.42;;;;;;;20.21;37.75;99920.56;1727855;82;20965;-85
2021/05/21 11:28:58;;;;;;;1.67;0.70;;;;;;;20.48;37.52;99915.73;1744977;82;20993;-83
2021/05/21 11:31:31;;;;;;;3.10;0.50;;;;;;;20.72;36.02;99910.89;1731541;82;21037;-84
2021/05/21 11:34:00;;;;;;;1.70;0.45;;;;;;;20.64;35.34;99916.42;1718176;83;21804;-84
2021/05/21 11:36:30;;;;;;;0.98;0.50;;;;;;;20.54;36.21;99932.87;1744320;82;21580;-84
2021/05/21 11:38:56;;;;;;;1.00;0.90;;;;;;;20.32;35.62;99932.09;1744513;82;21490;-85
2021/05/21 11:41:32;;;;;;;1.12;0.50;;;;;;;20.15;36.58;99930.71;1744457;82;21552;-83